Decoded Metar for KTTN (TRENTON in NJ, USA) (IATA:TTN) | Meteo·Mobile Aviation Weather
aviador You're here:

KTTN Decoded Metar

TRENTON in NJ, USA
Report Time2018-08-21 19:53:00
UTC Time2018-08-21 19:56:35
Flight Rules vfr VFR
Wind140° at 10 kt
W.Decomp.*RWY 16: 9.9 kt HW 1.4 kt LCW
RWY 24: 0.3 kt HW 10 kt LCW
W.Rank140° ranks 35
Current wind is above 140° avg. (6.0)
Visibility9999 m
Phenomena:N/A
Clouds:Scattered 020 Hf
Broken 037 Hf
Overcast 060 Hf
Expected CloudBase > 1,600 ft AGL from Temp-Dew spread
Ceiling3,700 ft
Temp25°C (ISA +10)
Dew Point21°C (79% RH)
QNH1015 hPa
Density Alt1,657 ft
Elevation194 ft
Report Wrong Elevation
Raw Report
METAR KTTN 211953Z 14010KT 10SM SCT020 BKN037 OVC060 25/21 A2997 RMK
AO2 RAE00 SLP143 P0000 T02500206=

Extra information for KTTN:More info

Metar Taf Metar & Taf Last 4 Metars F.Rules Stats Wind Profile Meteogram Temp Stats Airport Information Weather charts Add Link Nearby VenuesMetar ALERT Operation Metar Decoded Social comments

AIRNAV info for KTTN